Hovedside
METAR-TAF:

METAR-TAF

Lufthavner :

Bagdad, Irak

breddegrad: 33-15-45N, lengdegrad: 44-14-04E, høyde over havet: 35 m

Gjeldene værobservasjon

Denne rapporten ble laget for 1 time og 0 minutter siden, klokken 15:00 UTC
Vind 5 kt fra Vest-nordvest
Temperatur 17°C
Luftfuktighet 29%
Trykk 1018 hPa
Sikt 10 km eller mer
ingen skyer under 1500 m og ingen bygeskyer

METAR: ORBI 201500Z 29005KT CAVOK 17/M01 Q1018 NOSIG

Tid: 19:00 (16:00 UTC)

Varsel

Denne rapporten ble laget for 6 timer og 0 minutter siden, klokken 10:00 UTC
Varsel gyldig fra 20. klokken 12 UTC til 21. klokken 12 UTC
Vind 10 kt fra Nordvest
Sikt 10 km eller mer
ingen skyer under 1500 m og ingen bygeskyer

TAF: ORBI 201000Z 2012/2112 32010KT CAVOK

Værobservasjoner og værvarsel for over 4000 flyplasser (METAR- og TAF-rapporter).

Tilgjengelige stasjoner er representert av de røde og gule prikkene på kartet.

Hold musepekeren over prikken for å se navnet på stasjonen.

Klikk så for å se værobservasjoner og -varsler.

For å forandre kartet kan du klikke på den grønne knappen med svart kryss for å zoome inn, på den grønne knappen med strek for å zoome ut, eller på de grønne pilene for å se tilstøtende kart.


METAR-TAF: